Time;durP1;ratioP1;P1;durP2;ratioP2;P2;SDS_P1;SDS_P2;PMS_P1;PMS_P2;Temp;Humidity;BMP_temperature;BMP_pressure;BME280_temperature;BME280_humidity;BME280_pressure;Samples;Min_cycle;Max_cycle;Signal;HPM_P1;HPM_P2
2022/01/03 00:00:17;;;;;;;9.45;2.30;;;9.20;99.90;;;;;;4965365;28;20046;-74
2022/01/03 00:03:22;;;;;;;12.25;2.35;;;9.20;99.90;;;;;;4989323;28;20042;-74
2022/01/03 00:06:00;;;;;;;18.23;3.47;;;9.20;99.90;;;;;;4991309;28;20507;-74
2022/01/03 00:08:48;;;;;;;9.30;2.08;;;9.30;99.90;;;;;;4983801;28;20042;-74
2022/01/03 00:11:40;;;;;;;13.52;2.40;;;9.40;99.90;;;;;;4992533;28;20038;-74
2022/01/03 00:14:21;;;;;;;15.98;2.90;;;9.40;99.90;;;;;;4980981;28;20043;-74
2022/01/03 00:17:26;;;;;;;17.05;3.25;;;9.50;99.90;;;;;;4996564;28;20057;-74
2022/01/03 00:20:09;;;;;;;20.92;3.90;;;9.60;99.90;;;;;;4992711;28;20052;-74
2022/01/03 00:23:02;;;;;;;19.70;3.63;;;9.60;99.90;;;;;;4971878;28;20050;-74
2022/01/03 00:25:28;;;;;;;22.08;3.58;;;9.70;99.90;;;;;;4983392;28;20050;-74
2022/01/03 00:28:11;;;;;;;19.98;3.35;;;9.70;99.90;;;;;;4981209;28;20034;-74
2022/01/03 00:30:40;;;;;;;22.75;3.22;;;9.80;99.90;;;;;;4984548;28;20519;-74
2022/01/03 00:33:06;;;;;;;27.50;3.80;;;9.80;99.90;;;;;;4983572;28;20042;-74
2022/01/03 00:35:37;;;;;;;18.50;3.75;;;9.80;99.90;;;;;;4984986;28;20123;-74
2022/01/03 00:38:03;;;;;;;24.20;3.35;;;9.80;99.90;;;;;;4985678;28;20043;-74
2022/01/03 00:40:29;;;;;;;23.85;4.25;;;9.80;99.90;;;;;;4987177;28;20101;-74
2022/01/03 00:42:59;;;;;;;19.67;3.50;;;9.80;99.90;;;;;;4991384;28;20042;-74
2022/01/03 00:46:06;;;;;;;21.35;3.70;;;9.80;99.90;;;;;;4926546;29;20046;-74
2022/01/03 00:49:05;;;;;;;24.20;3.58;;;9.80;99.90;;;;;;4980560;28;20045;-74
2022/01/03 00:51:49;;;;;;;21.75;3.95;;;9.90;99.90;;;;;;4986657;28;20134;-74
2022/01/03 00:54:15;;;;;;;24.88;4.00;;;9.90;99.90;;;;;;4967747;28;20141;-74
2022/01/03 00:56:47;;;;;;;25.55;4.75;;;9.90;99.90;;;;;;4983962;28;20105;-74
2022/01/03 00:59:30;;;;;;;25.42;4.05;;;9.90;99.90;;;;;;4985357;28;20042;-74
2022/01/03 01:02:00;;;;;;;24.38;3.65;;;9.90;99.90;;;;;;4985829;28;20510;-74
2022/01/03 01:04:28;;;;;;;15.05;3.60;;;10.00;99.90;;;;;;4989123;28;20061;-74
2022/01/03 01:07:11;;;;;;;24.42;4.05;;;10.00;99.90;;;;;;4996446;28;20078;-74
2022/01/03 01:09:51;;;;;;;19.50;3.60;;;10.00;99.90;;;;;;4995590;28;20043;-74
2022/01/03 01:12:40;;;;;;;16.50;3.30;;;10.00;99.90;;;;;;4972658;28;20381;-73
2022/01/03 01:15:14;;;;;;;23.40;4.07;;;10.10;99.90;;;;;;4974845;28;20050;-74
2022/01/03 01:17:41;;;;;;;18.40;3.60;;;10.10;99.90;;;;;;4987640;28;20077;-74
2022/01/03 01:20:08;;;;;;;23.20;3.78;;;10.00;99.90;;;;;;4987867;28;20046;-74
2022/01/03 01:22:35;;;;;;;19.38;3.35;;;10.10;99.90;;;;;;4985288;28;20042;-74
2022/01/03 01:27:50;;;;;;;23.92;3.60;;;10.10;99.90;;;;;;5001291;28;20053;-74
2022/01/03 01:30:26;;;;;;;22.25;3.85;;;10.10;99.90;;;;;;4993131;28;20053;-74
2022/01/03 01:33:31;;;;;;;24.10;3.90;;;10.10;99.90;;;;;;4979009;28;20117;-74
2022/01/03 01:36:03;;;;;;;;;;;10.20;99.90;;;;;;4977645;28;20034;-74
2022/01/03 01:38:38;;;;;;;19.13;3.15;;;10.10;99.90;;;;;;4977728;28;20614;-74
2022/01/03 01:41:53;;;;;;;34.55;4.85;;;10.10;99.90;;;;;;4972373;28;20057;-74
2022/01/03 01:44:53;;;;;;;22.27;3.92;;;10.20;99.90;;;;;;4972253;28;20048;-73
2022/01/03 01:48:11;;;;;;;23.70;4.40;;;10.20;99.90;;;;;;4993211;28;20100;-74
2022/01/03 01:50:51;;;;;;;22.13;3.97;;;10.20;99.90;;;;;;5009815;28;20461;-74
2022/01/03 01:54:10;;;;;;;28.80;4.40;;;10.20;99.90;;;;;;4995640;28;20491;-74
2022/01/03 01:57:17;;;;;;;21.17;3.95;;;10.20;99.90;;;;;;4979769;28;20046;-74
2022/01/03 01:59:54;;;;;;;21.58;3.92;;;10.10;99.90;;;;;;4976837;28;20069;-74
2022/01/03 02:03:04;;;;;;;24.73;4.25;;;10.10;99.90;;;;;;4962669;28;20061;-74
2022/01/03 02:06:00;;;;;;;20.52;3.88;;;10.10;99.90;;;;;;4992326;28;20153;-74
2022/01/03 02:08:54;;;;;;;20.75;3.47;;;10.10;99.90;;;;;;4962112;28;20038;-74
2022/01/03 02:11:43;;;;;;;24.85;4.00;;;10.20;99.90;;;;;;4983513;28;20069;-74
2022/01/03 02:14:40;;;;;;;20.48;3.50;;;10.10;99.90;;;;;;4957194;28;20073;-74
2022/01/03 02:20:33;;;;;;;19.92;3.70;;;10.10;99.90;;;;;;4994897;28;20041;-73
2022/01/03 02:23:31;;;;;;;23.15;4.00;;;10.10;99.90;;;;;;4978111;28;20038;-74
2022/01/03 02:26:19;;;;;;;25.80;4.38;;;10.10;99.90;;;;;;4971848;28;20042;-74
2022/01/03 02:28:52;;;;;;;21.20;3.97;;;10.00;99.90;;;;;;4983051;28;20064;-74
2022/01/03 02:31:28;;;;;;;25.98;3.70;;;10.00;99.90;;;;;;4978579;28;20133;-74
2022/01/03 02:34:05;;;;;;;25.67;4.47;;;10.00;99.90;;;;;;4979985;28;20072;-74
2022/01/03 02:37:16;;;;;;;25.13;4.70;;;10.00;99.90;;;;;;4919355;29;20058;-74
2022/01/03 02:39:58;;;;;;;17.58;3.67;;;9.90;99.90;;;;;;4966118;28;20134;-74
2022/01/03 02:42:25;;;;;;;24.70;4.30;;;9.90;99.90;;;;;;4985326;28;20121;-74
2022/01/03 02:45:05;;;;;;;22.33;4.22;;;9.90;99.90;;;;;;4982478;28;20062;-74
2022/01/03 02:47:31;;;;;;;20.92;3.75;;;9.90;99.90;;;;;;4985487;28;20045;-74
2022/01/03 02:49:57;;;;;;;24.20;4.28;;;9.90;99.90;;;;;;4986237;28;20042;-74
2022/01/03 02:52:23;;;;;;;22.08;4.43;;;9.80;99.90;;;;;;4982503;28;20053;-74
2022/01/03 02:54:50;;;;;;;23.30;4.10;;;9.80;99.90;;;;;;4982105;28;20038;-74
2022/01/03 02:57:16;;;;;;;23.98;4.57;;;9.80;99.90;;;;;;4984907;28;20108;-74
2022/01/03 02:59:42;;;;;;;33.50;4.63;;;9.70;99.90;;;;;;4985112;28;20144;-74
2022/01/03 03:03:02;;;;;;;26.00;3.75;;;9.70;99.90;;;;;;4994313;28;20042;-74
2022/01/03 03:05:53;;;;;;;25.42;4.05;;;9.70;99.90;;;;;;4992813;28;20134;-74
2022/01/03 03:08:46;;;;;;;24.27;4.50;;;9.70;99.90;;;;;;4990809;28;20050;-74
2022/01/03 03:11:38;;;;;;;24.30;3.90;;;9.70;99.90;;;;;;4993083;28;20112;-74
2022/01/03 03:15:04;;;;;;;21.42;4.60;;;9.60;99.90;;;;;;4992182;28;20460;-74
2022/01/03 03:18:04;;;;;;;20.10;4.60;;;9.70;99.90;;;;;;4991363;28;20057;-74
2022/01/03 03:21:04;;;;;;;20.85;4.10;;;9.70;99.90;;;;;;4980109;28;20046;-73
2022/01/03 03:23:30;;;;;;;26.38;4.78;;;9.70;99.90;;;;;;4985014;28;20047;-73
2022/01/03 03:25:55;;;;;;;25.60;4.20;;;9.70;99.90;;;;;;4984197;28;20035;-73
2022/01/03 03:28:24;;;;;;;28.10;4.47;;;9.60;99.90;;;;;;4984173;28;20031;-73
2022/01/03 03:30:50;;;;;;;27.88;4.65;;;9.60;99.90;;;;;;4982202;28;20206;-73
2022/01/03 03:33:29;;;;;;;26.50;4.72;;;9.60;99.90;;;;;;4988567;28;20051;-74
2022/01/03 03:36:54;;;;;;;20.40;4.03;;;9.60;99.90;;;;;;4993788;28;20053;-74
2022/01/03 03:40:05;;;;;;;28.65;4.45;;;9.60;99.90;;;;;;4954131;28;20413;-74
2022/01/03 03:43:32;;;;;;;22.05;4.45;;;9.60;99.90;;;;;;4874265;29;20717;-74
2022/01/03 03:47:35;;;;;;;24.70;4.18;;;9.60;99.90;;;;;;4845657;29;20058;-74
2022/01/03 03:51:56;;;;;;;28.08;4.28;;;9.60;99.90;;;;;;4850456;29;20057;-74
2022/01/03 03:55:13;;;;;;;26.15;4.32;;;9.70;99.90;;;;;;4923413;28;20066;-74
2022/01/03 03:58:51;;;;;;;27.83;4.15;;;9.70;99.90;;;;;;4912847;28;20059;-74
2022/01/03 04:02:14;;;;;;;34.47;4.70;;;9.70;99.90;;;;;;4921071;28;20718;-73
2022/01/03 04:04:39;;;;;;;26.85;4.68;;;9.70;99.90;;;;;;4965369;28;20055;-73
2022/01/03 04:07:05;;;;;;;23.65;4.70;;;9.70;99.90;;;;;;4998372;28;20073;-74
2022/01/03 04:09:31;;;;;;;24.08;4.35;;;9.70;99.90;;;;;;4985317;28;20408;-74
2022/01/03 04:11:57;;;;;;;22.65;4.22;;;9.70;99.90;;;;;;4971920;28;20040;-74
2022/01/03 04:14:22;;;;;;;25.92;4.72;;;9.80;99.90;;;;;;4986584;28;20030;-73
2022/01/03 04:16:49;;;;;;;29.77;4.38;;;9.80;99.90;;;;;;4972276;28;20456;-73
2022/01/03 04:19:15;;;;;;;22.10;4.30;;;9.80;99.90;;;;;;4987725;28;20118;-73
2022/01/03 04:21:40;;;;;;;22.50;4.20;;;9.90;99.90;;;;;;4987308;28;20513;-73
2022/01/03 04:24:08;;;;;;;22.80;4.95;;;9.80;99.90;;;;;;4988971;28;20377;-73
2022/01/03 04:26:35;;;;;;;29.45;5.20;;;9.80;99.90;;;;;;4984134;28;20046;-73
2022/01/03 04:29:23;;;;;;;30.98;4.90;;;9.90;99.90;;;;;;4995741;28;20046;-74
2022/01/03 04:33:07;;;;;;;26.75;4.85;;;9.90;99.90;;;;;;4978621;28;20065;-74
2022/01/03 04:36:32;;;;;;;31.10;4.93;;;9.90;99.90;;;;;;4938972;29;20101;-73
2022/01/03 04:38:57;;;;;;;30.90;4.45;;;9.90;99.90;;;;;;4925702;28;20046;-73
2022/01/03 04:41:23;;;;;;;27.52;5.22;;;9.90;99.90;;;;;;4988137;28;20050;-73
2022/01/03 04:43:49;;;;;;;27.52;5.20;;;9.90;99.90;;;;;;4990783;28;20042;-73
2022/01/03 04:46:15;;;;;;;24.63;5.00;;;9.90;99.90;;;;;;4985277;28;20066;-73
2022/01/03 04:48:42;;;;;;;26.00;4.50;;;9.90;99.90;;;;;;4987367;28;20465;-73
2022/01/03 04:51:08;;;;;;;28.10;5.00;;;9.90;99.90;;;;;;4985575;28;21086;-73
2022/01/03 04:53:37;;;;;;;29.95;4.97;;;9.90;99.90;;;;;;4987574;28;20047;-73
2022/01/03 04:56:03;;;;;;;25.08;4.68;;;9.90;99.90;;;;;;4988382;28;20045;-73
2022/01/03 04:58:37;;;;;;;29.60;5.53;;;9.90;99.90;;;;;;4998186;28;20043;-74
2022/01/03 05:02:04;;;;;;;32.00;5.30;;;9.90;99.90;;;;;;4966988;28;20046;-74
2022/01/03 05:05:13;;;;;;;33.28;5.35;;;9.90;99.90;;;;;;4987462;28;20051;-74
2022/01/03 05:08:47;;;;;;;37.40;5.25;;;9.90;99.90;;;;;;4986465;28;20104;-74
2022/01/03 05:11:27;;;;;;;31.55;5.40;;;9.90;99.90;;;;;;4926472;28;20047;-74
2022/01/03 05:13:59;;;;;;;32.65;4.75;;;9.90;99.90;;;;;;4961684;28;20050;-74
2022/01/03 05:16:52;;;;;;;33.22;6.22;;;10.00;99.90;;;;;;4993966;28;20115;-74
2022/01/03 05:19:32;;;;;;;26.70;4.30;;;9.90;99.90;;;;;;4963672;28;20062;-74
2022/01/03 05:22:07;;;;;;;34.20;5.80;;;9.90;99.90;;;;;;4979869;28;20050;-74
2022/01/03 05:24:57;;;;;;;27.05;5.38;;;9.90;99.90;;;;;;4978097;28;21993;-74
2022/01/03 05:27:35;;;;;;;26.95;5.65;;;9.80;99.90;;;;;;4993112;28;20501;-74
2022/01/03 05:30:26;;;;;;;37.45;6.20;;;9.80;99.90;;;;;;4996878;28;20046;-74
2022/01/03 05:33:07;;;;;;;31.48;5.88;;;9.90;99.90;;;;;;4992550;28;20054;-74
2022/01/03 05:35:52;;;;;;;31.35;5.40;;;9.90;99.90;;;;;;5004813;28;20047;-74
2022/01/03 05:38:24;;;;;;;24.70;4.65;;;9.80;99.90;;;;;;5003335;28;20096;-73
2022/01/03 05:40:50;;;;;;;30.08;5.13;;;9.70;99.90;;;;;;4986109;28;20500;-73
2022/01/03 05:43:15;;;;;;;21.48;4.38;;;9.70;99.90;;;;;;4989466;28;20050;-73
2022/01/03 05:45:41;;;;;;;30.02;5.72;;;9.70;99.90;;;;;;4971293;28;20042;-73
2022/01/03 05:48:07;;;;;;;28.67;4.85;;;9.70;99.90;;;;;;4988347;28;20038;-73
2022/01/03 05:50:32;;;;;;;35.90;5.63;;;9.70;99.90;;;;;;4985322;28;20042;-73
2022/01/03 05:52:58;;;;;;;26.35;5.15;;;9.70;99.90;;;;;;4987062;28;20065;-73
2022/01/03 05:55:24;;;;;;;30.17;5.22;;;9.70;99.90;;;;;;4970526;28;20038;-73
2022/01/03 05:57:50;;;;;;;32.70;4.95;;;9.60;99.90;;;;;;4986520;28;20044;-73
2022/01/03 06:00:17;;;;;;;33.28;5.38;;;9.60;99.90;;;;;;4971568;28;20125;-73
2022/01/03 06:02:44;;;;;;;28.98;4.95;;;9.60;99.90;;;;;;4984180;28;20050;-73
2022/01/03 06:05:18;;;;;;;29.80;4.93;;;9.60;99.90;;;;;;4985230;28;20062;-73
2022/01/03 06:07:44;;;;;;;36.47;5.32;;;9.60;99.90;;;;;;4987313;28;20042;-73
2022/01/03 06:10:15;;;;;;;35.15;5.57;;;9.50;99.90;;;;;;4987654;28;20035;-73
2022/01/03 06:12:42;;;;;;;33.28;4.95;;;9.60;99.90;;;;;;4987266;28;20038;-73
2022/01/03 06:15:08;;;;;;;30.15;4.95;;;9.50;99.90;;;;;;4985694;28;20093;-73
2022/01/03 06:17:34;;;;;;;30.17;5.40;;;9.40;99.90;;;;;;4971091;28;20034;-73
2022/01/03 06:19:59;;;;;;;37.13;6.55;;;9.40;99.90;;;;;;4984000;28;20049;-73
2022/01/03 06:22:25;;;;;;;36.30;5.53;;;9.40;99.90;;;;;;4987891;28;20049;-73
2022/01/03 06:24:50;;;;;;;28.38;4.82;;;9.40;99.90;;;;;;4982153;28;20121;-74
2022/01/03 06:27:16;;;;;;;37.33;4.95;;;9.30;99.90;;;;;;4985439;28;20069;-74
2022/01/03 06:29:42;;;;;;;33.58;5.55;;;9.30;99.90;;;;;;4986349;28;20055;-74
2022/01/03 06:32:08;;;;;;;32.55;5.70;;;9.30;99.90;;;;;;4985541;28;20082;-74
2022/01/03 06:34:33;;;;;;;28.27;4.82;;;9.30;99.90;;;;;;5001117;28;20053;-73
2022/01/03 06:36:59;;;;;;;34.05;5.28;;;9.20;99.90;;;;;;4982311;28;20137;-73
2022/01/03 06:39:24;;;;;;;37.15;6.03;;;9.20;99.90;;;;;;4982646;28;20093;-73
2022/01/03 06:41:50;;;;;;;33.28;6.43;;;9.20;99.90;;;;;;4982672;28;20050;-73
2022/01/03 06:44:16;;;;;;;32.63;5.47;;;9.20;99.90;;;;;;4982900;28;20053;-73
2022/01/03 06:46:41;;;;;;;33.88;5.78;;;9.20;99.90;;;;;;4984054;28;20046;-73
2022/01/03 06:49:07;;;;;;;34.80;5.40;;;9.20;99.90;;;;;;4985345;28;20041;-73
2022/01/03 06:51:36;;;;;;;37.13;6.05;;;9.20;99.90;;;;;;4985627;28;20081;-73
2022/01/03 06:54:07;;;;;;;34.00;5.50;;;9.20;99.90;;;;;;4985440;28;20070;-73
2022/01/03 06:56:35;;;;;;;36.53;6.72;;;9.20;99.90;;;;;;4988855;28;20041;-74
2022/01/03 06:59:11;;;;;;;38.33;6.78;;;9.20;99.90;;;;;;4946454;28;20042;-74
2022/01/03 07:02:01;;;;;;;37.20;5.38;;;9.20;99.90;;;;;;4941164;28;20070;-74
2022/01/03 07:04:59;;;;;;;35.15;5.50;;;9.30;99.90;;;;;;4964710;28;20050;-74
2022/01/03 07:07:36;;;;;;;37.00;6.07;;;9.30;99.90;;;;;;4931712;28;20130;-74
2022/01/03 07:10:47;;;;;;;33.20;6.00;;;9.40;99.90;;;;;;4990067;28;20057;-74
2022/01/03 07:13:41;;;;;;;33.15;5.82;;;9.30;99.90;;;;;;4986795;28;20041;-74
2022/01/03 07:18:57;;;;;;;43.63;6.32;;;9.40;99.90;;;;;;4982434;28;20039;-74
2022/01/03 07:21:24;;;;;;;36.77;5.90;;;9.40;99.90;;;;;;4981757;28;20057;-74
2022/01/03 07:23:51;;;;;;;37.15;6.03;;;9.30;99.90;;;;;;4984132;28;20043;-75
2022/01/03 07:26:17;;;;;;;37.25;6.53;;;9.30;99.90;;;;;;4984076;28;20038;-74
2022/01/03 07:28:43;;;;;;;34.83;5.60;;;9.40;99.90;;;;;;4967665;28;20038;-74
2022/01/03 07:31:08;;;;;;;43.63;6.25;;;9.40;99.90;;;;;;4984039;28;20045;-74
2022/01/03 07:33:34;;;;;;;42.72;5.85;;;9.50;99.90;;;;;;4984316;28;20038;-74
2022/01/03 07:36:00;;;;;;;31.13;5.38;;;9.50;99.90;;;;;;4972478;28;20038;-73
2022/01/03 07:38:26;;;;;;;39.22;6.22;;;9.50;99.90;;;;;;4983021;28;20046;-73
2022/01/03 07:40:51;;;;;;;49.95;7.43;;;9.60;99.90;;;;;;4981983;28;20424;-73
2022/01/03 07:43:17;;;;;;;38.25;6.60;;;9.60;99.90;;;;;;4987916;28;20046;-73
2022/01/03 07:45:43;;;;;;;38.55;6.80;;;9.60;99.90;;;;;;4989925;28;20042;-73
2022/01/03 07:48:08;;;;;;;41.92;7.82;;;9.60;99.90;;;;;;4983072;28;20062;-74
2022/01/03 07:50:34;;;;;;;34.03;6.20;;;9.60;99.90;;;;;;4986345;28;20042;-74
2022/01/03 07:53:00;;;;;;;41.20;6.97;;;9.60;99.90;;;;;;4989315;28;20049;-74
2022/01/03 07:55:26;;;;;;;39.47;6.78;;;9.60;99.90;;;;;;4986027;28;20045;-73
2022/01/03 07:57:53;;;;;;;38.20;7.55;;;9.60;99.90;;;;;;4990097;28;20436;-74
2022/01/03 08:00:26;;;;;;;33.45;6.60;;;9.70;99.90;;;;;;4992206;28;20048;-74
2022/01/03 08:03:22;;;;;;;37.25;6.38;;;9.70;99.90;;;;;;4991725;28;20053;-74
2022/01/03 08:06:20;;;;;;;37.00;5.20;;;9.70;99.90;;;;;;4991502;28;20121;-73
2022/01/03 08:09:20;;;;;;;38.33;7.35;;;9.70;99.90;;;;;;4960957;28;20081;-74
2022/01/03 08:11:57;;;;;;;33.83;6.05;;;9.80;99.90;;;;;;4992197;28;20047;-73
2022/01/03 08:14:30;;;;;;;47.75;8.63;;;9.90;99.90;;;;;;4970981;28;20043;-73
2022/01/03 08:17:46;;;;;;;37.92;6.93;;;9.80;99.90;;;;;;4951086;28;20129;-74
2022/01/03 08:20:40;;;;;;;33.72;5.05;;;9.90;99.90;;;;;;4988788;28;20046;-74
2022/01/03 08:23:06;;;;;;;35.15;5.53;;;10.00;99.90;;;;;;4962278;28;20149;-74
2022/01/03 08:25:37;;;;;;;34.38;5.45;;;10.00;99.90;;;;;;4981984;28;20057;-74
2022/01/03 08:28:07;;;;;;;39.47;5.75;;;9.90;99.90;;;;;;4993505;28;20441;-74
2022/01/03 08:30:33;;;;;;;31.75;5.60;;;9.90;99.90;;;;;;4993189;28;20382;-73
2022/01/03 08:32:59;;;;;;;36.28;6.32;;;10.00;99.90;;;;;;4990123;28;20101;-73
2022/01/03 08:35:25;;;;;;;31.40;5.38;;;10.00;99.90;;;;;;4985977;28;20362;-73
2022/01/03 08:37:51;;;;;;;30.38;5.15;;;10.00;99.90;;;;;;4988912;28;20484;-73
2022/01/03 08:40:18;;;;;;;32.13;5.90;;;10.00;99.90;;;;;;4984026;28;20046;-73
2022/01/03 08:42:44;;;;;;;29.00;5.07;;;10.10;99.90;;;;;;4987017;28;20125;-73
2022/01/03 08:45:10;;;;;;;42.15;6.15;;;10.10;99.90;;;;;;4985797;28;20448;-73
2022/01/03 08:47:36;;;;;;;31.17;5.50;;;10.10;99.90;;;;;;4984927;28;20625;-73
2022/01/03 08:50:03;;;;;;;35.13;5.75;;;10.10;99.90;;;;;;4968943;28;20214;-73
2022/01/03 08:52:30;;;;;;;39.60;5.88;;;10.10;99.90;;;;;;4987551;28;20480;-73
2022/01/03 08:54:56;;;;;;;31.17;5.85;;;10.20;99.90;;;;;;4988990;28;20425;-73
2022/01/03 08:57:21;;;;;;;36.25;5.30;;;10.10;99.90;;;;;;4987619;28;20048;-73
2022/01/03 08:59:48;;;;;;;34.50;6.28;;;10.10;99.90;;;;;;4987078;28;20042;-73
2022/01/03 09:02:16;;;;;;;33.55;6.03;;;10.10;99.90;;;;;;4989129;28;20046;-73
2022/01/03 09:04:42;;;;;;;37.30;6.03;;;10.20;99.90;;;;;;4983874;28;20730;-73
2022/01/03 09:07:08;;;;;;;28.92;5.50;;;10.20;99.90;;;;;;4989295;28;20518;-73
2022/01/03 09:09:34;;;;;;;31.42;5.82;;;10.20;99.90;;;;;;4989608;28;20141;-74
2022/01/03 09:12:01;;;;;;;35.92;5.95;;;10.20;99.90;;;;;;4998861;28;20121;-73
2022/01/03 09:14:27;;;;;;;33.92;5.80;;;10.20;99.90;;;;;;5002083;28;20463;-72
2022/01/03 09:16:53;;;;;;;32.03;5.93;;;10.20;99.90;;;;;;4986061;28;20138;-72
2022/01/03 09:19:19;;;;;;;33.42;5.93;;;10.20;99.90;;;;;;4987185;28;20035;-73
2022/01/03 09:21:44;;;;;;;37.15;6.20;;;10.20;99.90;;;;;;4988691;28;20049;-73
2022/01/03 09:24:29;;;;;;;44.20;6.78;;;10.20;99.90;;;;;;4993212;28;20503;-73
2022/01/03 09:29:40;;;;;;;39.85;6.35;;;10.20;99.90;;;;;;4985973;28;20050;-73
2022/01/03 09:32:07;;;;;;;35.97;5.20;;;10.20;99.90;;;;;;4983401;28;20038;-73
2022/01/03 09:34:33;;;;;;;33.75;6.47;;;10.30;99.90;;;;;;4991118;28;20038;-74
2022/01/03 09:36:58;;;;;;;38.35;6.53;;;10.20;99.90;;;;;;4987605;28;20060;-73
2022/01/03 09:39:25;;;;;;;34.20;5.82;;;10.30;99.90;;;;;;4985019;28;20568;-73
2022/01/03 09:42:03;;;;;;;31.27;6.07;;;10.40;99.90;;;;;;4989081;28;20038;-73
2022/01/03 09:44:31;;;;;;;32.05;6.78;;;10.40;99.90;;;;;;4987145;28;20053;-72
2022/01/03 09:47:00;;;;;;;26.88;5.32;;;10.40;99.90;;;;;;4989310;28;20494;-74
2022/01/03 09:49:35;;;;;;;27.08;5.45;;;10.40;99.90;;;;;;5003226;28;20046;-73
2022/01/03 09:52:03;;;;;;;26.80;4.82;;;10.40;99.90;;;;;;4987159;28;20069;-74
2022/01/03 09:54:29;;;;;;;31.73;5.38;;;10.50;99.90;;;;;;4983570;28;20062;-74
2022/01/03 09:56:58;;;;;;;31.50;5.22;;;10.50;99.90;;;;;;4986772;28;20069;-74
2022/01/03 09:59:25;;;;;;;31.10;5.13;;;10.50;99.90;;;;;;4984941;28;20042;-73
2022/01/03 10:01:52;;;;;;;31.05;5.13;;;10.50;99.90;;;;;;4984557;28;20134;-73
2022/01/03 10:04:19;;;;;;;25.70;5.05;;;10.40;99.90;;;;;;4981059;28;20040;-73
2022/01/03 10:06:45;;;;;;;28.13;5.30;;;10.50;99.90;;;;;;4985537;28;20046;-73
2022/01/03 10:09:11;;;;;;;32.28;5.30;;;10.50;99.90;;;;;;4985666;28;20034;-73
2022/01/03 10:11:37;;;;;;;28.23;5.13;;;10.50;99.90;;;;;;4983366;28;20053;-73
2022/01/03 10:14:03;;;;;;;33.65;4.82;;;10.50;99.90;;;;;;5000167;28;20034;-73
2022/01/03 10:16:29;;;;;;;32.95;6.07;;;10.50;99.90;;;;;;4984660;28;20038;-72
2022/01/03 10:18:55;;;;;;;32.15;6.25;;;10.50;99.90;;;;;;4980827;28;21681;-73
2022/01/03 10:21:37;;;;;;;36.75;6.43;;;10.40;99.90;;;;;;4983867;28;20373;-72
2022/01/03 10:24:03;;;;;;;31.60;5.97;;;10.50;99.90;;;;;;4986589;28;20504;-72
2022/01/03 10:26:28;;;;;;;34.30;6.00;;;10.50;99.90;;;;;;4986693;28;20073;-73
2022/01/03 10:29:31;;;;;;;28.13;5.45;;;10.50;99.90;;;;;;4983065;28;20074;-73
2022/01/03 10:32:00;;;;;;;34.10;6.35;;;10.50;99.90;;;;;;4985359;28;20057;-73
2022/01/03 10:34:27;;;;;;;30.75;5.50;;;10.50;99.90;;;;;;4979309;28;20084;-72
2022/01/03 10:36:57;;;;;;;38.28;6.40;;;10.50;99.90;;;;;;4986699;28;20453;-73
2022/01/03 10:39:28;;;;;;;35.50;5.65;;;10.50;99.90;;;;;;4987598;28;20040;-73
2022/01/03 10:42:18;;;;;;;36.03;5.55;;;10.50;99.90;;;;;;4986521;28;20066;-73
2022/01/03 10:44:45;;;;;;;31.35;4.88;;;10.40;99.90;;;;;;4978464;28;20520;-73
2022/01/03 10:47:14;;;;;;;32.67;5.43;;;10.40;99.90;;;;;;4982514;28;20077;-73
2022/01/03 10:49:41;;;;;;;33.53;5.80;;;10.50;99.90;;;;;;4982936;28;20065;-74
2022/01/03 10:52:19;;;;;;;30.55;5.85;;;10.50;99.90;;;;;;4981951;28;20069;-73
2022/01/03 10:55:04;;;;;;;29.95;6.03;;;10.50;99.90;;;;;;4979815;28;20038;-73
2022/01/03 10:57:48;;;;;;;29.35;5.60;;;10.50;99.90;;;;;;4982700;28;20074;-73
2022/01/03 11:00:24;;;;;;;33.60;5.13;;;10.50;99.90;;;;;;4980006;28;20072;-73
2022/01/03 11:05:51;;;;;;;27.40;5.07;;;10.70;99.90;;;;;;4983585;28;20050;-73
2022/01/03 11:11:02;;;;;;;31.23;5.93;;;10.70;99.90;;;;;;4981917;28;20493;-74
2022/01/03 11:13:28;;;;;;;30.77;5.70;;;10.70;99.90;;;;;;4980460;28;20038;-73
2022/01/03 11:16:03;;;;;;;30.38;5.57;;;10.70;99.90;;;;;;4980993;28;20042;-73
2022/01/03 11:18:44;;;;;;;25.42;4.90;;;10.80;99.90;;;;;;4980310;28;20038;-73
2022/01/03 11:21:21;;;;;;;29.30;5.22;;;10.80;99.90;;;;;;4981290;28;20043;-73
2022/01/03 11:24:02;;;;;;;31.33;4.95;;;10.70;99.90;;;;;;4980912;28;20653;-74
2022/01/03 11:26:35;;;;;;;31.15;4.63;;;10.70;99.90;;;;;;4982882;28;20944;-73
2022/01/03 11:29:02;;;;;;;29.00;6.13;;;10.70;99.90;;;;;;4996381;28;20151;-73
2022/01/03 11:31:33;;;;;;;30.98;6.35;;;10.70;99.90;;;;;;4979715;28;20421;-73
2022/01/03 11:33:59;;;;;;;34.35;5.78;;;10.70;99.90;;;;;;4982234;28;20429;-73
2022/01/03 11:36:26;;;;;;;31.92;6.10;;;10.80;99.90;;;;;;4984319;28;20346;-73
2022/01/03 11:39:05;;;;;;;30.98;5.63;;;10.70;99.90;;;;;;4982707;28;20039;-73
2022/01/03 11:41:32;;;;;;;27.48;4.95;;;10.80;99.90;;;;;;4981791;28;20045;-73
2022/01/03 11:43:58;;;;;;;37.42;6.55;;;10.90;99.90;;;;;;4981054;28;20096;-73
2022/01/03 11:46:23;;;;;;;23.95;4.32;;;10.80;99.90;;;;;;4986007;28;20050;-74
2022/01/03 11:48:51;;;;;;;35.78;5.65;;;10.90;99.90;;;;;;4983532;28;20030;-74
2022/01/03 11:51:17;;;;;;;28.95;6.03;;;10.90;99.90;;;;;;4981804;28;20397;-75
2022/01/03 11:53:47;;;;;;;29.10;5.60;;;10.90;99.90;;;;;;4988043;28;20042;-75
2022/01/03 11:56:18;;;;;;;27.75;5.35;;;10.90;99.90;;;;;;4991223;28;20041;-74
2022/01/03 11:59:03;;;;;;;28.77;4.70;;;10.90;99.90;;;;;;4985324;28;20133;-74
2022/01/03 12:04:26;;;;;;;39.00;7.18;;;10.90;99.90;;;;;;4983184;28;20046;-75
2022/01/03 12:07:14;;;;;;;26.50;5.53;;;11.00;99.90;;;;;;4985555;28;20034;-75
2022/01/03 12:09:50;;;;;;;24.83;4.57;;;10.90;99.90;;;;;;4981304;28;20180;-74
2022/01/03 12:12:33;;;;;;;30.15;5.60;;;10.90;99.90;;;;;;4983942;28;20038;-73
2022/01/03 12:15:02;;;;;;;32.40;5.90;;;11.00;99.90;;;;;;4982814;28;20125;-74
2022/01/03 12:17:46;;;;;;;26.52;5.32;;;10.90;99.90;;;;;;4982164;28;20070;-74
2022/01/03 12:20:13;;;;;;;29.02;5.10;;;10.90;99.90;;;;;;4978505;28;20086;-72
2022/01/03 12:22:48;;;;;;;33.20;5.72;;;10.90;99.90;;;;;;4983597;28;20074;-74
2022/01/03 12:25:46;;;;;;;25.02;4.97;;;10.90;99.90;;;;;;4982992;28;20042;-73
2022/01/03 12:28:11;;;;;;;33.67;5.05;;;11.00;99.90;;;;;;4983307;28;20050;-73
2022/01/03 12:30:55;;;;;;;28.77;5.85;;;11.10;99.90;;;;;;4986344;28;20507;-73
2022/01/03 12:33:23;;;;;;;29.77;5.75;;;11.10;99.90;;;;;;4987951;28;20041;-72
2022/01/03 12:35:50;;;;;;;32.40;5.72;;;11.10;99.90;;;;;;4987156;28;20042;-72
2022/01/03 12:38:19;;;;;;;32.72;5.75;;;11.10;99.90;;;;;;4985720;28;20133;-74
2022/01/03 12:41:03;;;;;;;24.35;4.22;;;11.00;99.90;;;;;;4988808;28;20042;-74
2022/01/03 12:43:39;;;;;;;28.27;5.15;;;11.00;99.90;;;;;;4986899;28;20050;-71
2022/01/03 12:46:18;;;;;;;36.70;7.55;;;11.10;99.90;;;;;;4987515;28;20066;-71
2022/01/03 12:48:43;;;;;;;28.80;5.45;;;11.00;99.90;;;;;;4986353;28;20076;-72
2022/01/03 12:51:14;;;;;;;30.63;5.63;;;11.10;99.90;;;;;;4987110;28;20587;-71
2022/01/03 12:53:43;;;;;;;31.65;6.35;;;11.20;99.90;;;;;;4985947;28;20041;-72
2022/01/03 12:56:14;;;;;;;28.20;5.18;;;11.10;99.90;;;;;;4982597;28;20038;-71
2022/01/03 12:58:40;;;;;;;31.90;5.05;;;11.10;99.90;;;;;;4983667;28;20066;-71
2022/01/03 13:01:21;;;;;;;37.53;6.20;;;11.10;99.90;;;;;;4983251;28;20136;-72
2022/01/03 13:03:52;;;;;;;38.95;5.40;;;11.10;99.90;;;;;;4984548;28;20125;-71
2022/01/03 13:06:35;;;;;;;24.48;5.07;;;11.00;99.90;;;;;;4984498;28;20089;-72
2022/01/03 13:09:13;;;;;;;29.38;5.45;;;11.10;99.90;;;;;;4984109;28;20293;-72
2022/01/03 13:11:44;;;;;;;23.33;4.43;;;11.00;99.90;;;;;;4986193;28;20145;-71
2022/01/03 13:14:15;;;;;;;35.38;5.90;;;11.00;99.90;;;;;;4982483;28;20038;-73
2022/01/03 13:16:46;;;;;;;30.92;5.28;;;11.00;99.90;;;;;;4986254;28;20038;-71
2022/01/03 13:19:12;;;;;;;33.10;6.05;;;10.90;99.90;;;;;;4982804;28;20069;-72
2022/01/03 13:22:03;;;;;;;35.72;4.88;;;11.00;99.90;;;;;;4999397;28;20089;-71
2022/01/03 13:24:30;;;;;;;24.60;4.93;;;11.00;99.90;;;;;;4987865;28;20092;-72
2022/01/03 13:27:27;;;;;;;29.35;5.22;;;11.20;99.90;;;;;;4989640;28;20085;-72
2022/01/03 13:29:58;;;;;;;31.25;5.30;;;11.30;99.90;;;;;;4989241;28;20050;-72
2022/01/03 13:32:26;;;;;;;29.45;5.50;;;11.40;99.90;;;;;;4983313;28;20043;-72
2022/01/03 13:34:54;;;;;;;30.00;5.85;;;11.40;99.90;;;;;;4990629;28;20049;-72
2022/01/03 13:37:24;;;;;;;25.95;5.10;;;11.30;99.90;;;;;;4991639;28;20030;-72
2022/01/03 13:39:53;;;;;;;27.40;5.65;;;11.30;99.90;;;;;;4999665;28;20047;-71
2022/01/03 13:42:30;;;;;;;34.35;5.60;;;11.20;99.90;;;;;;4988015;28;20042;-71
2022/01/03 13:50:14;;;;;;;32.92;5.63;;;11.10;99.90;;;;;;4990140;28;20504;-71
2022/01/03 13:52:44;;;;;;;34.35;5.75;;;11.00;99.90;;;;;;4982340;28;20057;-71
2022/01/03 13:55:27;;;;;;;34.00;6.10;;;11.00;99.90;;;;;;4989688;28;20046;-72
2022/01/03 13:58:14;;;;;;;37.78;5.97;;;11.00;99.90;;;;;;4986138;28;20046;-71